Hauptseite
METAR-TAF:

METAR-TAF

Flughäfen :

Militärflugplatz Emmen

Emmen, Schweiz

Breite: 47-05-32N, Länge: 8-18-16E, Höhe: 426 m

Beobachtung

Neuester Wetterbericht von vor 38 Minuten, um 07:50 UTC
Wind 2 kt aus unterschiedlichen Richtungen
Temperatur 25°C
Luftfeuchtigkeit 57%
Luftdruck 1018 hPa
Sichtweite 10 km oder mehr
Leicht bewölkt in der Höhe von 6000 ft

METAR: LSME 210750Z VRB02KT 9999 FEW060 25/16 Q1018 RMK BLU+

Zeit: 10:28 (08:28 UTC)


TAF: fehlend

Wetterbeobachtungen und Prognosen von mehr als 4000 Flughäfen (METAR und TAF Bericht).

Die verfügbaren Stationen werden durch gelbe und rote Markierungen auf der Karte dargestellt.

Führen Sie die Maus auf sie, um den Namen der Station zu sehen.

Darauf klicken, um die Beobachtung von Wetterbeobachtungen und Prognosen zu sehen.

Um die Karte zu ändern : klicken Sie auf den grünen Tasten mit einem schwarzen Kreuz Zum Vergrößern, auf den grünen Button mit einem Gedankenstrich zu verkleinern, oder auf die grünen Pfeile für benachbarte Karten.


METAR-TAF: